sensor_id;sensor_type;location;lat;lon;timestamp;P1;durP1;ratioP1;P2;durP2;ratioP2
17177;SDS011;8704;52.006;4.374;2022-11-20T00:00:54;21.40;;;13.27;;
17177;SDS011;8704;52.006;4.374;2022-11-20T00:03:22;18.30;;;12.73;;
17177;SDS011;8704;52.006;4.374;2022-11-20T00:05:52;20.83;;;13.23;;
17177;SDS011;8704;52.006;4.374;2022-11-20T00:08:20;20.00;;;13.52;;
17177;SDS011;8704;52.006;4.374;2022-11-20T00:11:01;19.50;;;12.88;;
17177;SDS011;8704;52.006;4.374;2022-11-20T00:13:30;17.50;;;12.85;;
17177;SDS011;8704;52.006;4.374;2022-11-20T00:15:59;18.33;;;12.90;;
17177;SDS011;8704;52.006;4.374;2022-11-20T00:18:28;18.73;;;12.88;;
17177;SDS011;8704;52.006;4.374;2022-11-20T00:21:01;18.13;;;12.57;;
17177;SDS011;8704;52.006;4.374;2022-11-20T00:23:30;19.42;;;13.15;;
17177;SDS011;8704;52.006;4.374;2022-11-20T00:26:00;18.92;;;12.77;;
17177;SDS011;8704;52.006;4.374;2022-11-20T00:28:38;18.67;;;12.73;;
17177;SDS011;8704;52.006;4.374;2022-11-20T00:31:08;20.52;;;13.93;;
17177;SDS011;8704;52.006;4.374;2022-11-20T00:33:37;18.95;;;12.70;;
17177;SDS011;8704;52.006;4.374;2022-11-20T00:36:08;20.67;;;14.02;;
17177;SDS011;8704;52.006;4.374;2022-11-20T00:38:38;19.83;;;13.73;;
17177;SDS011;8704;52.006;4.374;2022-11-20T00:41:06;19.85;;;13.70;;
17177;SDS011;8704;52.006;4.374;2022-11-20T00:43:36;21.30;;;14.05;;
17177;SDS011;8704;52.006;4.374;2022-11-20T00:46:05;18.60;;;12.57;;
17177;SDS011;8704;52.006;4.374;2022-11-20T00:48:35;20.35;;;13.43;;
17177;SDS011;8704;52.006;4.374;2022-11-20T00:51:04;18.25;;;13.55;;
17177;SDS011;8704;52.006;4.374;2022-11-20T00:53:33;20.80;;;14.40;;
17177;SDS011;8704;52.006;4.374;2022-11-20T00:56:02;19.92;;;14.05;;
17177;SDS011;8704;52.006;4.374;2022-11-20T00:58:32;21.33;;;14.98;;
17177;SDS011;8704;52.006;4.374;2022-11-20T01:01:01;26.35;;;15.35;;
17177;SDS011;8704;52.006;4.374;2022-11-20T01:03:30;20.13;;;14.57;;
17177;SDS011;8704;52.006;4.374;2022-11-20T01:05:59;22.20;;;14.90;;
17177;SDS011;8704;52.006;4.374;2022-11-20T01:08:29;20.02;;;14.85;;
17177;SDS011;8704;52.006;4.374;2022-11-20T01:11:02;20.23;;;14.30;;
17177;SDS011;8704;52.006;4.374;2022-11-20T01:13:32;20.13;;;14.35;;
17177;SDS011;8704;52.006;4.374;2022-11-20T01:16:07;21.65;;;14.90;;
17177;SDS011;8704;52.006;4.374;2022-11-20T01:18:37;22.58;;;16.00;;
17177;SDS011;8704;52.006;4.374;2022-11-20T01:21:07;24.73;;;16.48;;
17177;SDS011;8704;52.006;4.374;2022-11-20T01:23:37;24.30;;;16.15;;
17177;SDS011;8704;52.006;4.374;2022-11-20T01:26:08;22.67;;;15.32;;
17177;SDS011;8704;52.006;4.374;2022-11-20T01:28:37;21.40;;;14.45;;
17177;SDS011;8704;52.006;4.374;2022-11-20T01:31:13;22.75;;;15.25;;
17177;SDS011;8704;52.006;4.374;2022-11-20T01:33:46;22.80;;;14.95;;
17177;SDS011;8704;52.006;4.374;2022-11-20T01:36:15;21.77;;;15.85;;
17177;SDS011;8704;52.006;4.374;2022-11-20T01:38:44;19.48;;;14.35;;
17177;SDS011;8704;52.006;4.374;2022-11-20T01:41:14;21.10;;;15.65;;
17177;SDS011;8704;52.006;4.374;2022-11-20T01:43:57;22.23;;;14.75;;
17177;SDS011;8704;52.006;4.374;2022-11-20T01:46:26;20.85;;;14.70;;
17177;SDS011;8704;52.006;4.374;2022-11-20T01:48:56;20.95;;;15.57;;
17177;SDS011;8704;52.006;4.374;2022-11-20T01:51:28;17.95;;;14.23;;
17177;SDS011;8704;52.006;4.374;2022-11-20T01:54:01;20.92;;;14.43;;
17177;SDS011;8704;52.006;4.374;2022-11-20T01:59:04;22.60;;;14.13;;
17177;SDS011;8704;52.006;4.374;2022-11-20T02:01:34;22.05;;;15.40;;
17177;SDS011;8704;52.006;4.374;2022-11-20T02:04:03;19.92;;;14.55;;
17177;SDS011;8704;52.006;4.374;2022-11-20T02:06:32;19.80;;;14.98;;
17177;SDS011;8704;52.006;4.374;2022-11-20T02:09:05;24.13;;;15.40;;
17177;SDS011;8704;52.006;4.374;2022-11-20T02:11:35;19.13;;;15.18;;
17177;SDS011;8704;52.006;4.374;2022-11-20T02:14:03;22.88;;;15.57;;
17177;SDS011;8704;52.006;4.374;2022-11-20T02:16:31;20.75;;;16.55;;
17177;SDS011;8704;52.006;4.374;2022-11-20T02:19:09;23.27;;;16.15;;
17177;SDS011;8704;52.006;4.374;2022-11-20T02:21:46;21.15;;;15.07;;
17177;SDS011;8704;52.006;4.374;2022-11-20T02:24:17;20.45;;;15.82;;
17177;SDS011;8704;52.006;4.374;2022-11-20T02:26:47;21.83;;;15.45;;
17177;SDS011;8704;52.006;4.374;2022-11-20T02:31:49;20.92;;;15.38;;
17177;SDS011;8704;52.006;4.374;2022-11-20T02:34:18;23.55;;;15.68;;
17177;SDS011;8704;52.006;4.374;2022-11-20T02:36:46;23.48;;;15.15;;
17177;SDS011;8704;52.006;4.374;2022-11-20T02:39:15;25.52;;;16.88;;
17177;SDS011;8704;52.006;4.374;2022-11-20T02:41:47;22.42;;;16.20;;
17177;SDS011;8704;52.006;4.374;2022-11-20T02:44:15;20.67;;;15.43;;
17177;SDS011;8704;52.006;4.374;2022-11-20T02:46:43;22.20;;;15.80;;
17177;SDS011;8704;52.006;4.374;2022-11-20T02:49:11;21.52;;;15.35;;
17177;SDS011;8704;52.006;4.374;2022-11-20T02:51:39;21.40;;;15.40;;
17177;SDS011;8704;52.006;4.374;2022-11-20T02:54:07;20.92;;;15.55;;
17177;SDS011;8704;52.006;4.374;2022-11-20T02:56:38;23.02;;;15.98;;
17177;SDS011;8704;52.006;4.374;2022-11-20T02:59:06;22.08;;;15.57;;
17177;SDS011;8704;52.006;4.374;2022-11-20T03:01:35;20.30;;;15.20;;
17177;SDS011;8704;52.006;4.374;2022-11-20T03:04:03;20.95;;;14.93;;
17177;SDS011;8704;52.006;4.374;2022-11-20T03:06:31;24.15;;;15.68;;
17177;SDS011;8704;52.006;4.374;2022-11-20T03:08:59;21.65;;;15.70;;
17177;SDS011;8704;52.006;4.374;2022-11-20T03:11:28;21.92;;;15.43;;
17177;SDS011;8704;52.006;4.374;2022-11-20T03:13:57;22.00;;;15.27;;
17177;SDS011;8704;52.006;4.374;2022-11-20T03:16:30;21.38;;;15.23;;
17177;SDS011;8704;52.006;4.374;2022-11-20T03:18:59;23.65;;;16.08;;
17177;SDS011;8704;52.006;4.374;2022-11-20T03:21:27;23.92;;;15.52;;
17177;SDS011;8704;52.006;4.374;2022-11-20T03:23:55;23.20;;;16.65;;
17177;SDS011;8704;52.006;4.374;2022-11-20T03:26:23;24.20;;;17.13;;
17177;SDS011;8704;52.006;4.374;2022-11-20T03:28:53;22.35;;;16.63;;
17177;SDS011;8704;52.006;4.374;2022-11-20T03:31:24;24.17;;;16.55;;
17177;SDS011;8704;52.006;4.374;2022-11-20T03:33:54;22.67;;;16.30;;
17177;SDS011;8704;52.006;4.374;2022-11-20T03:36:23;24.77;;;17.05;;
17177;SDS011;8704;52.006;4.374;2022-11-20T03:38:52;25.10;;;17.88;;
17177;SDS011;8704;52.006;4.374;2022-11-20T03:41:22;24.13;;;17.55;;
17177;SDS011;8704;52.006;4.374;2022-11-20T03:43:51;24.83;;;17.88;;
17177;SDS011;8704;52.006;4.374;2022-11-20T03:46:21;23.42;;;16.63;;
17177;SDS011;8704;52.006;4.374;2022-11-20T03:48:51;24.77;;;17.20;;
17177;SDS011;8704;52.006;4.374;2022-11-20T03:51:20;23.02;;;17.58;;
17177;SDS011;8704;52.006;4.374;2022-11-20T03:53:50;24.13;;;17.20;;
17177;SDS011;8704;52.006;4.374;2022-11-20T03:56:19;26.23;;;17.98;;
17177;SDS011;8704;52.006;4.374;2022-11-20T03:58:50;24.15;;;17.90;;
17177;SDS011;8704;52.006;4.374;2022-11-20T04:01:19;24.67;;;17.13;;
17177;SDS011;8704;52.006;4.374;2022-11-20T04:03:48;24.02;;;17.17;;
17177;SDS011;8704;52.006;4.374;2022-11-20T04:06:21;22.85;;;16.63;;
17177;SDS011;8704;52.006;4.374;2022-11-20T04:08:50;22.33;;;16.85;;
17177;SDS011;8704;52.006;4.374;2022-11-20T04:11:19;24.70;;;17.35;;
17177;SDS011;8704;52.006;4.374;2022-11-20T04:13:49;22.73;;;17.10;;
17177;SDS011;8704;52.006;4.374;2022-11-20T04:16:18;25.77;;;17.33;;
17177;SDS011;8704;52.006;4.374;2022-11-20T04:18:50;23.58;;;16.75;;
17177;SDS011;8704;52.006;4.374;2022-11-20T04:21:20;23.30;;;16.45;;
17177;SDS011;8704;52.006;4.374;2022-11-20T04:23:49;23.73;;;16.75;;
17177;SDS011;8704;52.006;4.374;2022-11-20T04:26:17;22.50;;;17.27;;
17177;SDS011;8704;52.006;4.374;2022-11-20T04:28:45;22.05;;;16.42;;
17177;SDS011;8704;52.006;4.374;2022-11-20T04:31:14;25.08;;;17.02;;
17177;SDS011;8704;52.006;4.374;2022-11-20T04:33:43;24.90;;;17.40;;
17177;SDS011;8704;52.006;4.374;2022-11-20T04:36:12;27.17;;;17.83;;
17177;SDS011;8704;52.006;4.374;2022-11-20T04:38:43;25.27;;;16.98;;
17177;SDS011;8704;52.006;4.374;2022-11-20T04:41:12;23.95;;;16.98;;
17177;SDS011;8704;52.006;4.374;2022-11-20T04:43:45;26.17;;;18.58;;
17177;SDS011;8704;52.006;4.374;2022-11-20T04:46:14;24.35;;;17.52;;
17177;SDS011;8704;52.006;4.374;2022-11-20T04:48:42;25.80;;;17.73;;
17177;SDS011;8704;52.006;4.374;2022-11-20T04:51:10;23.05;;;17.00;;
17177;SDS011;8704;52.006;4.374;2022-11-20T04:53:38;26.52;;;17.35;;
17177;SDS011;8704;52.006;4.374;2022-11-20T04:56:08;23.58;;;17.13;;
17177;SDS011;8704;52.006;4.374;2022-11-20T04:58:38;23.03;;;17.33;;
17177;SDS011;8704;52.006;4.374;2022-11-20T05:01:07;22.77;;;17.45;;
17177;SDS011;8704;52.006;4.374;2022-11-20T05:03:37;24.75;;;17.67;;
17177;SDS011;8704;52.006;4.374;2022-11-20T05:06:08;25.33;;;17.75;;
17177;SDS011;8704;52.006;4.374;2022-11-20T05:08:37;25.45;;;17.35;;
17177;SDS011;8704;52.006;4.374;2022-11-20T05:11:06;24.35;;;17.95;;
17177;SDS011;8704;52.006;4.374;2022-11-20T05:13:37;23.77;;;17.45;;
17177;SDS011;8704;52.006;4.374;2022-11-20T05:16:06;24.98;;;16.98;;
17177;SDS011;8704;52.006;4.374;2022-11-20T05:18:36;24.85;;;17.83;;
17177;SDS011;8704;52.006;4.374;2022-11-20T05:21:04;21.95;;;16.88;;
17177;SDS011;8704;52.006;4.374;2022-11-20T05:23:33;24.45;;;17.48;;
17177;SDS011;8704;52.006;4.374;2022-11-20T05:26:02;26.60;;;17.17;;
17177;SDS011;8704;52.006;4.374;2022-11-20T05:28:32;25.42;;;18.35;;
17177;SDS011;8704;52.006;4.374;2022-11-20T05:31:04;25.02;;;18.00;;
17177;SDS011;8704;52.006;4.374;2022-11-20T05:33:33;26.42;;;18.75;;
17177;SDS011;8704;52.006;4.374;2022-11-20T05:36:01;26.83;;;20.15;;
17177;SDS011;8704;52.006;4.374;2022-11-20T05:38:30;26.92;;;19.80;;
17177;SDS011;8704;52.006;4.374;2022-11-20T05:41:02;27.02;;;20.10;;
17177;SDS011;8704;52.006;4.374;2022-11-20T05:43:33;25.23;;;19.30;;
17177;SDS011;8704;52.006;4.374;2022-11-20T05:46:02;27.17;;;19.80;;
17177;SDS011;8704;52.006;4.374;2022-11-20T05:48:31;26.95;;;19.73;;
17177;SDS011;8704;52.006;4.374;2022-11-20T05:51:00;27.20;;;20.88;;
17177;SDS011;8704;52.006;4.374;2022-11-20T05:53:28;27.55;;;21.33;;
17177;SDS011;8704;52.006;4.374;2022-11-20T05:55:59;26.40;;;20.80;;
17177;SDS011;8704;52.006;4.374;2022-11-20T05:58:27;27.00;;;21.63;;
17177;SDS011;8704;52.006;4.374;2022-11-20T06:01:03;27.92;;;21.30;;
17177;SDS011;8704;52.006;4.374;2022-11-20T06:03:32;28.38;;;22.25;;
17177;SDS011;8704;52.006;4.374;2022-11-20T06:06:00;27.58;;;22.10;;
17177;SDS011;8704;52.006;4.374;2022-11-20T06:08:29;29.00;;;22.52;;
17177;SDS011;8704;52.006;4.374;2022-11-20T06:10:58;29.80;;;24.48;;
17177;SDS011;8704;52.006;4.374;2022-11-20T06:13:29;28.58;;;23.80;;
17177;SDS011;8704;52.006;4.374;2022-11-20T06:15:57;29.73;;;23.55;;
17177;SDS011;8704;52.006;4.374;2022-11-20T06:18:27;29.75;;;22.95;;
17177;SDS011;8704;52.006;4.374;2022-11-20T06:20:59;28.58;;;23.50;;
17177;SDS011;8704;52.006;4.374;2022-11-20T06:25:56;28.42;;;22.45;;
17177;SDS011;8704;52.006;4.374;2022-11-20T06:28:28;28.63;;;22.50;;
17177;SDS011;8704;52.006;4.374;2022-11-20T06:30:56;26.98;;;21.38;;
17177;SDS011;8704;52.006;4.374;2022-11-20T06:33:24;29.60;;;22.17;;
17177;SDS011;8704;52.006;4.374;2022-11-20T06:35:55;29.05;;;22.95;;
17177;SDS011;8704;52.006;4.374;2022-11-20T06:38:28;29.88;;;23.55;;
17177;SDS011;8704;52.006;4.374;2022-11-20T06:40:56;28.63;;;23.67;;
17177;SDS011;8704;52.006;4.374;2022-11-20T06:43:24;29.92;;;23.27;;
17177;SDS011;8704;52.006;4.374;2022-11-20T06:45:56;29.13;;;23.80;;
17177;SDS011;8704;52.006;4.374;2022-11-20T06:48:25;30.27;;;23.95;;
17177;SDS011;8704;52.006;4.374;2022-11-20T06:50:56;33.40;;;25.65;;
17177;SDS011;8704;52.006;4.374;2022-11-20T06:53:24;28.77;;;23.83;;
17177;SDS011;8704;52.006;4.374;2022-11-20T06:55:52;31.33;;;24.50;;
17177;SDS011;8704;52.006;4.374;2022-11-20T06:58:25;32.03;;;25.58;;
17177;SDS011;8704;52.006;4.374;2022-11-20T07:00:57;31.48;;;24.95;;
17177;SDS011;8704;52.006;4.374;2022-11-20T07:03:25;35.88;;;27.80;;
17177;SDS011;8704;52.006;4.374;2022-11-20T07:05:55;33.17;;;28.10;;
17177;SDS011;8704;52.006;4.374;2022-11-20T07:08:23;38.35;;;28.50;;
17177;SDS011;8704;52.006;4.374;2022-11-20T07:10:52;32.25;;;28.67;;
17177;SDS011;8704;52.006;4.374;2022-11-20T07:13:23;34.33;;;29.38;;
17177;SDS011;8704;52.006;4.374;2022-11-20T07:15:51;34.05;;;27.85;;
17177;SDS011;8704;52.006;4.374;2022-11-20T07:18:19;36.00;;;29.40;;
17177;SDS011;8704;52.006;4.374;2022-11-20T07:20:48;33.47;;;28.88;;
17177;SDS011;8704;52.006;4.374;2022-11-20T07:23:17;35.63;;;29.88;;
17177;SDS011;8704;52.006;4.374;2022-11-20T07:25:45;34.40;;;29.75;;
17177;SDS011;8704;52.006;4.374;2022-11-20T07:28:13;31.80;;;27.83;;
17177;SDS011;8704;52.006;4.374;2022-11-20T07:30:41;37.58;;;30.17;;
17177;SDS011;8704;52.006;4.374;2022-11-20T07:33:09;35.35;;;30.48;;
17177;SDS011;8704;52.006;4.374;2022-11-20T07:35:37;35.97;;;29.88;;
17177;SDS011;8704;52.006;4.374;2022-11-20T07:38:05;36.38;;;30.85;;
17177;SDS011;8704;52.006;4.374;2022-11-20T07:40:35;36.05;;;29.50;;
17177;SDS011;8704;52.006;4.374;2022-11-20T07:43:03;36.63;;;29.63;;
17177;SDS011;8704;52.006;4.374;2022-11-20T07:45:31;36.88;;;30.10;;
17177;SDS011;8704;52.006;4.374;2022-11-20T07:47:59;36.30;;;30.90;;
17177;SDS011;8704;52.006;4.374;2022-11-20T07:50:27;37.10;;;30.58;;
17177;SDS011;8704;52.006;4.374;2022-11-20T07:52:59;35.90;;;30.50;;
17177;SDS011;8704;52.006;4.374;2022-11-20T07:55:28;34.72;;;30.00;;
17177;SDS011;8704;52.006;4.374;2022-11-20T07:57:58;35.47;;;31.58;;
17177;SDS011;8704;52.006;4.374;2022-11-20T08:00:26;34.88;;;30.30;;
17177;SDS011;8704;52.006;4.374;2022-11-20T08:02:54;36.78;;;30.42;;
17177;SDS011;8704;52.006;4.374;2022-11-20T08:05:22;34.10;;;28.77;;
17177;SDS011;8704;52.006;4.374;2022-11-20T08:07:50;39.75;;;31.90;;
17177;SDS011;8704;52.006;4.374;2022-11-20T08:10:18;38.88;;;30.83;;
17177;SDS011;8704;52.006;4.374;2022-11-20T08:12:46;43.22;;;31.58;;
17177;SDS011;8704;52.006;4.374;2022-11-20T08:15:34;35.17;;;29.88;;
17177;SDS011;8704;52.006;4.374;2022-11-20T08:18:04;37.78;;;30.23;;
17177;SDS011;8704;52.006;4.374;2022-11-20T08:20:53;37.38;;;30.60;;
17177;SDS011;8704;52.006;4.374;2022-11-20T08:23:22;37.75;;;31.30;;
17177;SDS011;8704;52.006;4.374;2022-11-20T08:25:50;41.05;;;31.55;;
17177;SDS011;8704;52.006;4.374;2022-11-20T08:28:18;36.83;;;30.83;;
17177;SDS011;8704;52.006;4.374;2022-11-20T08:30:49;40.20;;;31.45;;
17177;SDS011;8704;52.006;4.374;2022-11-20T08:33:17;39.05;;;32.47;;
17177;SDS011;8704;52.006;4.374;2022-11-20T08:35:45;41.45;;;32.75;;
17177;SDS011;8704;52.006;4.374;2022-11-20T08:38:13;42.38;;;32.75;;
17177;SDS011;8704;52.006;4.374;2022-11-20T08:40:41;40.70;;;33.10;;
17177;SDS011;8704;52.006;4.374;2022-11-20T08:43:30;41.35;;;34.17;;
17177;SDS011;8704;52.006;4.374;2022-11-20T08:45:59;38.20;;;31.88;;
17177;SDS011;8704;52.006;4.374;2022-11-20T08:48:27;44.45;;;33.53;;
17177;SDS011;8704;52.006;4.374;2022-11-20T08:50:57;43.50;;;34.35;;
17177;SDS011;8704;52.006;4.374;2022-11-20T08:53:25;37.45;;;32.35;;
17177;SDS011;8704;52.006;4.374;2022-11-20T08:55:53;40.55;;;31.92;;
17177;SDS011;8704;52.006;4.374;2022-11-20T08:58:21;39.13;;;31.23;;
17177;SDS011;8704;52.006;4.374;2022-11-20T09:00:49;40.55;;;31.73;;
17177;SDS011;8704;52.006;4.374;2022-11-20T09:03:19;38.22;;;29.63;;
17177;SDS011;8704;52.006;4.374;2022-11-20T09:05:47;42.10;;;31.45;;
17177;SDS011;8704;52.006;4.374;2022-11-20T09:08:15;39.92;;;32.92;;
17177;SDS011;8704;52.006;4.374;2022-11-20T09:10:43;42.88;;;34.22;;
17177;SDS011;8704;52.006;4.374;2022-11-20T09:13:11;40.05;;;33.90;;
17177;SDS011;8704;52.006;4.374;2022-11-20T09:15:39;42.72;;;33.53;;
17177;SDS011;8704;52.006;4.374;2022-11-20T09:18:07;40.63;;;32.90;;
17177;SDS011;8704;52.006;4.374;2022-11-20T09:20:36;47.83;;;32.38;;
17177;SDS011;8704;52.006;4.374;2022-11-20T09:23:04;38.90;;;32.20;;
17177;SDS011;8704;52.006;4.374;2022-11-20T09:25:35;40.35;;;32.95;;
17177;SDS011;8704;52.006;4.374;2022-11-20T09:28:03;41.13;;;31.88;;
17177;SDS011;8704;52.006;4.374;2022-11-20T09:30:31;42.90;;;32.80;;
17177;SDS011;8704;52.006;4.374;2022-11-20T09:33:00;40.65;;;31.55;;
17177;SDS011;8704;52.006;4.374;2022-11-20T09:35:28;40.28;;;32.80;;
17177;SDS011;8704;52.006;4.374;2022-11-20T09:37:58;37.55;;;31.00;;
17177;SDS011;8704;52.006;4.374;2022-11-20T09:40:27;40.35;;;31.05;;
17177;SDS011;8704;52.006;4.374;2022-11-20T09:42:56;36.28;;;30.00;;
17177;SDS011;8704;52.006;4.374;2022-11-20T09:45:33;36.13;;;29.40;;
17177;SDS011;8704;52.006;4.374;2022-11-20T09:48:24;41.70;;;31.05;;
17177;SDS011;8704;52.006;4.374;2022-11-20T09:51:21;38.15;;;30.33;;
17177;SDS011;8704;52.006;4.374;2022-11-20T09:54:00;36.63;;;29.60;;
17177;SDS011;8704;52.006;4.374;2022-11-20T09:56:41;37.55;;;29.60;;
17177;SDS011;8704;52.006;4.374;2022-11-20T09:59:15;41.33;;;31.10;;
17177;SDS011;8704;52.006;4.374;2022-11-20T10:01:55;40.15;;;30.98;;
17177;SDS011;8704;52.006;4.374;2022-11-20T10:04:25;40.40;;;31.92;;
17177;SDS011;8704;52.006;4.374;2022-11-20T10:07:00;39.53;;;32.00;;
17177;SDS011;8704;52.006;4.374;2022-11-20T10:09:55;44.70;;;32.05;;
17177;SDS011;8704;52.006;4.374;2022-11-20T10:12:26;48.40;;;34.40;;
17177;SDS011;8704;52.006;4.374;2022-11-20T10:15:03;47.95;;;34.03;;
17177;SDS011;8704;52.006;4.374;2022-11-20T10:17:48;47.53;;;35.53;;
17177;SDS011;8704;52.006;4.374;2022-11-20T10:20:33;44.28;;;33.00;;
17177;SDS011;8704;52.006;4.374;2022-11-20T10:23:15;44.88;;;33.85;;
17177;SDS011;8704;52.006;4.374;2022-11-20T10:25:56;45.83;;;35.33;;
17177;SDS011;8704;52.006;4.374;2022-11-20T10:28:34;48.00;;;35.72;;
17177;SDS011;8704;52.006;4.374;2022-11-20T10:31:27;53.38;;;36.10;;
17177;SDS011;8704;52.006;4.374;2022-11-20T10:33:59;48.63;;;37.40;;
17177;SDS011;8704;52.006;4.374;2022-11-20T10:36:39;47.17;;;35.97;;
17177;SDS011;8704;52.006;4.374;2022-11-20T10:39:14;44.25;;;36.38;;
17177;SDS011;8704;52.006;4.374;2022-11-20T10:41:50;47.13;;;35.70;;
17177;SDS011;8704;52.006;4.374;2022-11-20T10:44:20;47.55;;;35.50;;
17177;SDS011;8704;52.006;4.374;2022-11-20T10:47:04;48.80;;;36.42;;
17177;SDS011;8704;52.006;4.374;2022-11-20T10:49:33;48.15;;;36.20;;
17177;SDS011;8704;52.006;4.374;2022-11-20T10:52:04;51.15;;;36.30;;
17177;SDS011;8704;52.006;4.374;2022-11-20T10:54:39;55.55;;;38.42;;
17177;SDS011;8704;52.006;4.374;2022-11-20T10:57:19;48.22;;;36.85;;
17177;SDS011;8704;52.006;4.374;2022-11-20T10:59:57;50.33;;;37.58;;
17177;SDS011;8704;52.006;4.374;2022-11-20T11:02:31;48.58;;;37.72;;
17177;SDS011;8704;52.006;4.374;2022-11-20T11:05:08;46.95;;;35.35;;
17177;SDS011;8704;52.006;4.374;2022-11-20T11:07:43;46.23;;;35.10;;
17177;SDS011;8704;52.006;4.374;2022-11-20T11:10:14;51.38;;;35.55;;
17177;SDS011;8704;52.006;4.374;2022-11-20T11:12:46;44.67;;;33.67;;
17177;SDS011;8704;52.006;4.374;2022-11-20T11:15:24;46.90;;;35.58;;
17177;SDS011;8704;52.006;4.374;2022-11-20T11:17:53;48.63;;;36.45;;
17177;SDS011;8704;52.006;4.374;2022-11-20T11:20:22;46.10;;;34.67;;
17177;SDS011;8704;52.006;4.374;2022-11-20T11:22:51;42.97;;;34.47;;
17177;SDS011;8704;52.006;4.374;2022-11-20T11:25:26;47.10;;;33.60;;
17177;SDS011;8704;52.006;4.374;2022-11-20T11:27:58;45.70;;;34.90;;
17177;SDS011;8704;52.006;4.374;2022-11-20T11:30:28;47.78;;;35.85;;
17177;SDS011;8704;52.006;4.374;2022-11-20T11:33:05;45.20;;;34.80;;
17177;SDS011;8704;52.006;4.374;2022-11-20T11:35:38;47.58;;;34.88;;
17177;SDS011;8704;52.006;4.374;2022-11-20T11:38:28;45.22;;;33.42;;
17177;SDS011;8704;52.006;4.374;2022-11-20T11:40:58;46.05;;;33.35;;
17177;SDS011;8704;52.006;4.374;2022-11-20T11:43:28;48.42;;;35.13;;
17177;SDS011;8704;52.006;4.374;2022-11-20T11:46:27;44.95;;;33.90;;
17177;SDS011;8704;52.006;4.374;2022-11-20T11:48:58;45.60;;;34.00;;
17177;SDS011;8704;52.006;4.374;2022-11-20T11:51:30;42.78;;;33.03;;
17177;SDS011;8704;52.006;4.374;2022-11-20T11:54:03;47.05;;;33.78;;
17177;SDS011;8704;52.006;4.374;2022-11-20T11:56:43;46.13;;;32.70;;
17177;SDS011;8704;52.006;4.374;2022-11-20T11:59:15;43.25;;;32.47;;
17177;SDS011;8704;52.006;4.374;2022-11-20T12:01:51;42.60;;;32.97;;
17177;SDS011;8704;52.006;4.374;2022-11-20T12:04:25;44.45;;;32.33;;
17177;SDS011;8704;52.006;4.374;2022-11-20T12:07:08;43.03;;;32.47;;
17177;SDS011;8704;52.006;4.374;2022-11-20T12:10:00;47.67;;;33.22;;
17177;SDS011;8704;52.006;4.374;2022-11-20T12:12:31;46.63;;;33.35;;
17177;SDS011;8704;52.006;4.374;2022-11-20T12:15:06;46.45;;;33.22;;
17177;SDS011;8704;52.006;4.374;2022-11-20T12:17:38;49.92;;;34.17;;
17177;SDS011;8704;52.006;4.374;2022-11-20T12:20:10;52.75;;;38.80;;
17177;SDS011;8704;52.006;4.374;2022-11-20T12:22:41;50.13;;;35.67;;
17177;SDS011;8704;52.006;4.374;2022-11-20T12:25:18;48.30;;;35.08;;
17177;SDS011;8704;52.006;4.374;2022-11-20T12:27:56;51.20;;;36.58;;
17177;SDS011;8704;52.006;4.374;2022-11-20T12:30:36;53.53;;;37.67;;
17177;SDS011;8704;52.006;4.374;2022-11-20T12:33:16;52.60;;;37.65;;
17177;SDS011;8704;52.006;4.374;2022-11-20T12:36:01;55.38;;;38.83;;
17177;SDS011;8704;52.006;4.374;2022-11-20T12:38:45;52.95;;;35.75;;
17177;SDS011;8704;52.006;4.374;2022-11-20T12:44:48;52.55;;;36.95;;
17177;SDS011;8704;52.006;4.374;2022-11-20T12:47:46;54.90;;;37.40;;
17177;SDS011;8704;52.006;4.374;2022-11-20T12:50:23;61.38;;;38.25;;
17177;SDS011;8704;52.006;4.374;2022-11-20T12:53:22;56.42;;;37.40;;
17177;SDS011;8704;52.006;4.374;2022-11-20T12:55:56;56.58;;;37.92;;
17177;SDS011;8704;52.006;4.374;2022-11-20T12:58:32;56.97;;;39.00;;
17177;SDS011;8704;52.006;4.374;2022-11-20T13:01:09;61.00;;;40.33;;
17177;SDS011;8704;52.006;4.374;2022-11-20T13:04:08;61.67;;;39.47;;
17177;SDS011;8704;52.006;4.374;2022-11-20T13:06:46;58.35;;;39.13;;
17177;SDS011;8704;52.006;4.374;2022-11-20T13:09:16;60.10;;;41.08;;
17177;SDS011;8704;52.006;4.374;2022-11-20T13:11:49;59.08;;;41.53;;
17177;SDS011;8704;52.006;4.374;2022-11-20T13:14:26;57.65;;;40.85;;
17177;SDS011;8704;52.006;4.374;2022-11-20T13:17:04;64.03;;;42.63;;
17177;SDS011;8704;52.006;4.374;2022-11-20T13:19:38;57.55;;;42.05;;
17177;SDS011;8704;52.006;4.374;2022-11-20T13:22:07;59.78;;;42.67;;
17177;SDS011;8704;52.006;4.374;2022-11-20T13:24:36;63.30;;;43.63;;
17177;SDS011;8704;52.006;4.374;2022-11-20T13:27:05;59.60;;;43.35;;
17177;SDS011;8704;52.006;4.374;2022-11-20T13:32:25;64.25;;;45.08;;
17177;SDS011;8704;52.006;4.374;2022-11-20T13:35:00;64.03;;;45.45;;
17177;SDS011;8704;52.006;4.374;2022-11-20T13:37:30;62.38;;;44.92;;
17177;SDS011;8704;52.006;4.374;2022-11-20T13:40:11;65.35;;;45.78;;
17177;SDS011;8704;52.006;4.374;2022-11-20T13:42:44;70.10;;;47.38;;
17177;SDS011;8704;52.006;4.374;2022-11-20T13:45:22;64.68;;;45.53;;
17177;SDS011;8704;52.006;4.374;2022-11-20T13:47:52;63.22;;;47.15;;
17177;SDS011;8704;52.006;4.374;2022-11-20T13:50:26;68.35;;;47.60;;
17177;SDS011;8704;52.006;4.374;2022-11-20T13:53:12;65.60;;;47.33;;
17177;SDS011;8704;52.006;4.374;2022-11-20T13:55:58;72.15;;;48.58;;
17177;SDS011;8704;52.006;4.374;2022-11-20T13:58:30;69.05;;;49.88;;
17177;SDS011;8704;52.006;4.374;2022-11-20T14:01:14;71.13;;;50.47;;
17177;SDS011;8704;52.006;4.374;2022-11-20T14:03:45;67.03;;;48.50;;
17177;SDS011;8704;52.006;4.374;2022-11-20T14:06:34;70.25;;;47.45;;
17177;SDS011;8704;52.006;4.374;2022-11-20T14:09:10;68.65;;;49.78;;
17177;SDS011;8704;52.006;4.374;2022-11-20T14:11:45;72.18;;;49.70;;
17177;SDS011;8704;52.006;4.374;2022-11-20T14:14:15;71.05;;;50.97;;
17177;SDS011;8704;52.006;4.374;2022-11-20T14:16:46;73.25;;;50.45;;
17177;SDS011;8704;52.006;4.374;2022-11-20T14:19:25;66.38;;;47.15;;
17177;SDS011;8704;52.006;4.374;2022-11-20T14:22:08;63.83;;;46.73;;
17177;SDS011;8704;52.006;4.374;2022-11-20T14:24:38;75.38;;;49.72;;
17177;SDS011;8704;52.006;4.374;2022-11-20T14:27:10;69.75;;;49.97;;
17177;SDS011;8704;52.006;4.374;2022-11-20T14:29:41;68.75;;;50.00;;
17177;SDS011;8704;52.006;4.374;2022-11-20T14:32:10;65.10;;;48.92;;
17177;SDS011;8704;52.006;4.374;2022-11-20T14:34:41;73.03;;;50.58;;
17177;SDS011;8704;52.006;4.374;2022-11-20T14:37:18;64.13;;;47.40;;
17177;SDS011;8704;52.006;4.374;2022-11-20T14:39:49;68.70;;;48.53;;
17177;SDS011;8704;52.006;4.374;2022-11-20T14:42:20;70.28;;;51.92;;
17177;SDS011;8704;52.006;4.374;2022-11-20T14:44:49;73.65;;;50.60;;
17177;SDS011;8704;52.006;4.374;2022-11-20T14:47:21;64.40;;;47.25;;
17177;SDS011;8704;52.006;4.374;2022-11-20T14:49:52;70.57;;;49.83;;
17177;SDS011;8704;52.006;4.374;2022-11-20T14:52:23;66.88;;;49.20;;
17177;SDS011;8704;52.006;4.374;2022-11-20T14:54:53;65.55;;;48.55;;
17177;SDS011;8704;52.006;4.374;2022-11-20T14:57:24;68.53;;;50.78;;
17177;SDS011;8704;52.006;4.374;2022-11-20T15:02:46;70.88;;;53.30;;
17177;SDS011;8704;52.006;4.374;2022-11-20T15:05:16;70.13;;;51.58;;
17177;SDS011;8704;52.006;4.374;2022-11-20T15:07:47;72.30;;;53.97;;
17177;SDS011;8704;52.006;4.374;2022-11-20T15:10:21;77.63;;;54.13;;
17177;SDS011;8704;52.006;4.374;2022-11-20T15:12:51;73.13;;;56.28;;
17177;SDS011;8704;52.006;4.374;2022-11-20T15:15:21;76.80;;;55.33;;
17177;SDS011;8704;52.006;4.374;2022-11-20T15:17:52;68.88;;;55.80;;